Time;durP1;ratioP1;P1;durP2;ratioP2;P2;SDS_P1;SDS_P2;PMS_P1;PMS_P2;Temp;Humidity;BMP_temperature;BMP_pressure;BME280_temperature;BME280_humidity;BME280_pressure;Samples;Min_cycle;Max_cycle;Signal;HPM_P1;HPM_P2
2021/11/20 00:01:46;;;;;;;70.25;33.53;;;;;;;11.83;75.11;102458.31;4944112;28;20043;-60
2021/11/20 00:04:13;;;;;;;63.72;31.67;;;;;;;11.93;74.60;102457.97;4954399;28;20043;-60
2021/11/20 00:06:45;;;;;;;73.88;33.35;;;;;;;11.96;74.53;102456.16;4946892;28;20051;-63
2021/11/20 00:09:15;;;;;;;69.63;32.35;;;;;;;11.95;74.70;102472.81;4942417;28;20054;-60
2021/11/20 00:11:44;;;;;;;71.00;33.67;;;;;;;11.96;74.63;102464.03;4948044;28;20061;-59
2021/11/20 00:14:12;;;;;;;77.93;34.08;;;;;;;11.95;74.70;102470.19;4949892;28;20102;-59
2021/11/20 00:16:41;;;;;;;77.78;35.85;;;;;;;12.00;74.47;102466.53;4949193;28;20055;-59
2021/11/20 00:19:09;;;;;;;82.53;37.85;;;;;;;12.03;74.63;102462.91;4940538;28;20055;-66
2021/11/20 00:21:42;;;;;;;83.80;37.58;;;;;;;11.97;74.65;102452.59;4944139;28;20202;-59
2021/11/20 00:24:26;;;;;;;82.40;36.70;;;;;;;11.98;74.25;102455.19;4955270;28;20043;-65
2021/11/20 00:26:55;;;;;;;76.93;35.22;;;;;;;11.94;74.68;102450.91;4941426;28;20091;-60
2021/11/20 00:29:27;;;;;;;78.60;36.72;;;;;;;11.95;74.65;102454.38;4944363;28;20054;-59
2021/11/20 00:32:00;;;;;;;74.15;35.45;;;;;;;12.00;74.50;102455.13;4955281;28;20054;-60
2021/11/20 00:34:31;;;;;;;74.85;35.80;;;;;;;11.94;74.77;102453.53;4944575;28;20052;-59
2021/11/20 00:36:58;;;;;;;75.90;35.30;;;;;;;11.97;74.44;102452.59;4941933;28;20094;-65
2021/11/20 00:39:29;;;;;;;80.10;36.03;;;;;;;11.97;74.52;102449.97;4947467;28;20055;-59
2021/11/20 00:41:56;;;;;;;75.13;35.85;;;;;;;11.97;74.66;102452.59;4937132;28;20111;-59
2021/11/20 00:44:24;;;;;;;73.10;33.63;;;;;;;11.95;74.50;102450.00;4942859;28;20048;-60
2021/11/20 00:46:51;;;;;;;77.80;34.80;;;;;;;11.93;74.62;102450.06;4950581;28;20077;-59
2021/11/20 00:49:19;;;;;;;67.05;32.53;;;;;;;11.95;74.53;102446.50;4953060;28;20046;-60
2021/11/20 00:51:47;;;;;;;69.85;33.97;;;;;;;11.90;74.47;102452.78;4943684;28;20055;-59
2021/11/20 00:54:16;;;;;;;65.60;32.20;;;;;;;11.93;74.56;102446.56;4954517;28;20411;-59
2021/11/20 00:56:43;;;;;;;66.40;31.48;;;;;;;11.95;74.48;102451.75;4954467;28;20050;-59
2021/11/20 00:59:10;;;;;;;67.18;32.35;;;;;;;11.92;74.48;102447.47;4952444;28;20613;-59
2021/11/20 01:01:44;;;;;;;64.47;30.55;;;;;;;11.92;74.57;102445.72;4954728;28;20043;-60
2021/11/20 01:04:11;;;;;;;62.95;31.38;;;;;;;11.88;74.47;102443.22;4954538;28;20043;-59
2021/11/20 01:06:40;;;;;;;57.75;30.27;;;;;;;11.86;74.66;102448.56;4954601;28;20061;-60
2021/11/20 01:09:08;;;;;;;62.90;31.08;;;;;;;11.86;74.33;102450.31;4954890;28;20054;-61
2021/11/20 01:11:39;;;;;;;60.78;30.30;;;;;;;11.85;74.33;102456.50;4954744;28;20047;-60
2021/11/20 01:14:08;;;;;;;64.20;30.33;;;;;;;11.81;74.22;102450.47;4954163;28;20048;-60
2021/11/20 01:16:36;;;;;;;54.78;29.02;;;;;;;11.80;74.36;102461.06;4953458;28;20043;-60
2021/11/20 01:19:04;;;;;;;58.85;29.98;;;;;;;11.75;73.77;102453.31;4954587;28;20052;-64
2021/11/20 01:21:33;;;;;;;57.35;29.45;;;;;;;11.73;74.29;102455.13;4954582;28;20043;-60
2021/11/20 01:24:00;;;;;;;60.33;30.17;;;;;;;11.73;74.38;102445.50;4954666;28;20051;-60
2021/11/20 01:26:26;;;;;;;54.35;29.20;;;;;;;11.74;74.09;102448.97;4950408;28;20043;-60
2021/11/20 01:28:56;;;;;;;59.25;29.38;;;;;;;11.73;74.18;102447.25;4954217;28;20051;-69
2021/11/20 01:31:25;;;;;;;57.85;28.50;;;;;;;11.76;74.06;102449.78;4953306;28;20074;-60
2021/11/20 01:33:52;;;;;;;60.75;29.80;;;;;;;11.75;73.99;102448.06;4953103;28;20047;-68
2021/11/20 01:36:24;;;;;;;59.70;29.23;;;;;;;11.74;73.95;102451.59;4954187;28;20043;-60
2021/11/20 01:38:53;;;;;;;55.33;28.17;;;;;;;11.80;73.80;102447.91;4947526;28;20508;-60
2021/11/20 01:41:23;;;;;;;57.50;29.98;;;;;;;11.83;73.82;102439.91;4953923;28;20055;-68
2021/11/20 01:43:53;;;;;;;56.35;28.77;;;;;;;11.86;73.63;102432.78;4953788;28;20574;-64
2021/11/20 01:46:30;;;;;;;56.97;29.05;;;;;;;11.83;73.41;102429.38;4949715;28;20386;-59
2021/11/20 01:49:18;;;;;;;58.90;29.67;;;;;;;11.84;73.67;102424.06;4940805;28;20052;-62
2021/11/20 01:51:52;;;;;;;61.40;30.40;;;;;;;11.86;73.45;102424.00;4949332;28;20057;-59
2021/11/20 01:54:25;;;;;;;62.58;30.20;;;;;;;11.89;73.62;102418.66;4953929;28;20043;-59
2021/11/20 01:57:14;;;;;;;64.28;31.83;;;;;;;11.84;73.81;102421.44;4953886;28;20090;-59
2021/11/20 01:59:57;;;;;;;65.18;31.88;;;;;;;11.87;73.57;102423.97;4953602;28;20047;-59
2021/11/20 02:02:32;;;;;;;71.63;33.90;;;;;;;11.87;73.43;102431.00;4953554;28;20050;-59
2021/11/20 02:05:17;;;;;;;69.95;32.75;;;;;;;11.80;73.94;102421.63;4952869;28;20492;-60
2021/11/20 02:08:13;;;;;;;66.80;31.90;;;;;;;11.82;73.63;102414.50;4940604;28;20105;-59
2021/11/20 02:11:05;;;;;;;61.63;29.80;;;;;;;11.84;73.77;102421.44;4953876;28;20075;-62
2021/11/20 02:13:34;;;;;;;61.40;30.13;;;;;;;11.80;74.00;102418.97;4953809;28;20287;-61
2021/11/20 02:16:18;;;;;;;78.95;35.42;;;;;;;11.74;74.04;102422.66;4953821;28;20094;-59
2021/11/20 02:18:50;;;;;;;83.28;35.95;;;;;;;11.80;73.92;102418.97;4953455;28;20043;-58
2021/11/20 02:21:22;;;;;;;78.32;36.00;;;;;;;11.81;73.93;102412.78;4952855;28;20039;-59
2021/11/20 02:23:50;;;;;;;78.60;34.78;;;;;;;11.75;74.01;102411.25;4953585;28;20058;-59
2021/11/20 02:26:18;;;;;;;70.30;33.35;;;;;;;11.80;74.16;102404.03;4953670;28;20051;-59
2021/11/20 02:28:46;;;;;;;66.88;31.45;;;;;;;11.79;74.16;102407.59;4953989;28;20047;-59
2021/11/20 02:31:16;;;;;;;68.35;32.28;;;;;;;11.77;74.06;102396.28;4953363;28;20492;-59
2021/11/20 02:33:47;;;;;;;75.28;34.13;;;;;;;11.80;74.10;102390.91;4953733;28;20074;-59
2021/11/20 02:36:18;;;;;;;70.40;32.63;;;;;;;11.80;74.29;102385.63;4952651;28;20050;-59
2021/11/20 02:39:07;;;;;;;75.32;34.55;;;;;;;11.81;74.22;102373.31;4953548;28;20542;-60
2021/11/20 02:41:36;;;;;;;80.70;36.28;;;;;;;11.76;74.03;102377.00;4953036;28;20091;-60
2021/11/20 02:44:05;;;;;;;80.53;36.30;;;;;;;11.74;74.33;102373.56;4953837;28;20043;-60
2021/11/20 02:46:36;;;;;;;77.07;35.28;;;;;;;11.63;74.46;102374.84;4953489;28;20062;-59
2021/11/20 02:49:05;;;;;;;74.78;33.10;;;;;;;11.72;74.36;102382.44;4940428;28;20047;-60
2021/11/20 02:51:34;;;;;;;70.15;32.95;;;;;;;11.75;74.10;102371.78;4952076;28;20043;-59
2021/11/20 02:54:11;;;;;;;66.32;31.10;;;;;;;11.74;74.62;102368.31;4953187;28;20086;-60
2021/11/20 02:56:57;;;;;;;80.03;36.78;;;;;;;11.72;74.34;102369.28;4953706;28;20385;-59
2021/11/20 02:59:27;;;;;;;85.22;37.72;;;;;;;11.72;74.31;102367.50;4952535;28;20043;-59
2021/11/20 03:01:53;;;;;;;74.88;35.70;;;;;;;11.67;74.67;102365.94;4953546;28;20051;-59
2021/11/20 03:04:22;;;;;;;77.63;36.53;;;;;;;11.69;74.56;102356.22;4953361;28;20051;-59
2021/11/20 03:06:52;;;;;;;72.90;34.05;;;;;;;11.73;74.53;102352.56;4953242;28;20094;-59
2021/11/20 03:09:21;;;;;;;70.93;33.25;;;;;;;11.75;74.29;102356.00;4952407;28;20094;-59
2021/11/20 03:11:48;;;;;;;66.43;32.50;;;;;;;11.71;74.46;102355.25;4954307;28;20043;-59
2021/11/20 03:14:16;;;;;;;72.93;33.40;;;;;;;11.70;74.70;102356.16;4956726;28;20047;-59
2021/11/20 03:16:52;;;;;;;68.30;32.03;;;;;;;11.70;74.51;102348.28;4956751;28;20058;-59
2021/11/20 03:19:21;;;;;;;64.85;31.33;;;;;;;11.66;74.69;102346.69;4956493;28;20530;-59
2021/11/20 03:21:53;;;;;;;63.97;30.02;;;;;;;11.69;74.52;102338.66;4956719;28;20047;-59
2021/11/20 03:24:23;;;;;;;61.47;29.95;;;;;;;11.68;74.68;102342.22;4955581;28;20051;-59
2021/11/20 03:26:49;;;;;;;61.88;28.48;;;;;;;11.67;74.31;102345.78;4956663;28;20051;-59
2021/11/20 03:29:16;;;;;;;61.65;28.58;;;;;;;11.68;74.50;102336.09;4956439;28;20051;-59
2021/11/20 03:31:43;;;;;;;59.17;29.20;;;;;;;11.71;74.47;102338.63;4956688;28;20043;-59
2021/11/20 03:34:11;;;;;;;61.40;29.52;;;;;;;11.72;74.46;102330.69;4956508;28;20044;-63
2021/11/20 03:36:39;;;;;;;68.85;31.48;;;;;;;11.68;74.53;102338.72;4956372;28;20514;-59
2021/11/20 03:39:08;;;;;;;70.22;32.08;;;;;;;11.64;74.78;102337.97;4956136;28;20082;-59
2021/11/20 03:41:35;;;;;;;72.88;32.03;;;;;;;11.62;74.50;102338.94;4955175;28;20555;-60
2021/11/20 03:44:02;;;;;;;73.78;33.17;;;;;;;11.62;74.70;102331.94;4956431;28;20047;-59
2021/11/20 03:46:29;;;;;;;70.38;33.65;;;;;;;11.64;74.88;102337.13;4956125;28;20048;-60
2021/11/20 03:48:56;;;;;;;74.35;33.10;;;;;;;11.64;74.84;102331.88;4956319;28;20385;-60
2021/11/20 03:51:23;;;;;;;74.75;33.58;;;;;;;11.64;75.09;102323.97;4956117;28;20058;-60
2021/11/20 03:53:51;;;;;;;76.10;33.10;;;;;;;11.63;75.04;102322.25;4956178;28;20111;-59
2021/11/20 03:56:19;;;;;;;76.82;33.95;;;;;;;11.59;74.99;102321.50;4955091;28;20055;-59
2021/11/20 03:58:45;;;;;;;77.78;33.42;;;;;;;11.65;75.17;102325.69;4956066;28;20050;-60
2021/11/20 04:01:15;;;;;;;75.75;33.70;;;;;;;11.65;74.94;102321.28;4955738;28;20052;-63
2021/11/20 04:03:44;;;;;;;70.20;32.38;;;;;;;11.71;74.94;102317.59;4946082;28;20074;-68
2021/11/20 04:06:13;;;;;;;74.07;32.15;;;;;;;11.63;75.13;102315.25;4950399;28;20054;-58
2021/11/20 04:08:40;;;;;;;71.25;32.22;;;;;;;11.63;75.07;102312.63;4942620;28;20051;-69
2021/11/20 04:11:07;;;;;;;70.07;31.85;;;;;;;11.57;75.17;102303.16;4949646;28;20051;-59
2021/11/20 04:13:36;;;;;;;66.30;30.08;;;;;;;11.51;75.40;102313.03;4947165;28;20403;-59
2021/11/20 04:16:04;;;;;;;67.85;31.02;;;;;;;11.51;75.31;102307.78;4954073;28;20072;-60
2021/11/20 04:18:30;;;;;;;59.97;30.33;;;;;;;11.47;75.29;102303.56;4955547;28;20500;-59
2021/11/20 04:20:57;;;;;;;61.28;29.70;;;;;;;11.47;75.49;102312.28;4955612;28;20098;-59
2021/11/20 04:23:24;;;;;;;63.53;28.77;;;;;;;11.43;75.38;102306.28;4954288;28;20047;-59
2021/11/20 04:25:51;;;;;;;60.13;30.02;;;;;;;11.41;75.52;102304.63;4955518;28;20051;-60
2021/11/20 04:28:19;;;;;;;60.35;28.20;;;;;;;11.47;75.32;102303.56;4955130;28;20066;-60
2021/11/20 04:30:47;;;;;;;58.47;28.67;;;;;;;11.51;75.23;102313.03;4954590;28;20087;-59
2021/11/20 04:33:15;;;;;;;59.97;29.17;;;;;;;11.46;75.13;102313.19;4955218;28;20125;-59
2021/11/20 04:35:43;;;;;;;57.65;28.35;;;;;;;11.47;75.40;102311.44;4955635;28;20055;-59
2021/11/20 04:38:11;;;;;;;59.17;28.73;;;;;;;11.45;75.20;102316.72;4954806;28;20503;-60
2021/11/20 04:40:39;;;;;;;54.28;27.65;;;;;;;11.49;75.25;102315.72;4955269;28;20498;-60
2021/11/20 04:43:06;;;;;;;58.00;28.90;;;;;;;11.52;74.80;102314.75;4955566;28;20053;-59
2021/11/20 04:45:35;;;;;;;59.28;29.40;;;;;;;11.54;74.86;102319.06;4954425;28;20047;-59
2021/11/20 04:48:04;;;;;;;56.33;28.48;;;;;;;11.54;74.94;102320.81;4955183;28;20109;-59
2021/11/20 04:50:31;;;;;;;54.17;27.35;;;;;;;11.51;74.90;102324.41;4955103;28;20054;-59
2021/11/20 04:52:58;;;;;;;60.35;29.20;;;;;;;11.55;74.81;102325.16;4955303;28;20051;-59
2021/11/20 04:55:25;;;;;;;57.58;28.48;;;;;;;11.52;74.79;102326.13;4954823;28;20051;-60
2021/11/20 04:57:52;;;;;;;60.63;28.88;;;;;;;11.51;75.12;102321.78;4955025;28;20098;-59
2021/11/20 05:00:25;;;;;;;58.55;28.20;;;;;;;11.50;74.85;102314.78;4954890;28;20408;-64
2021/11/20 05:02:53;;;;;;;59.60;29.67;;;;;;;11.54;74.81;102319.06;4953853;28;20514;-59
2021/11/20 05:05:24;;;;;;;53.90;27.90;;;;;;;11.51;74.90;102316.50;4954571;28;20047;-59
2021/11/20 05:07:52;;;;;;;57.90;28.50;;;;;;;11.48;74.86;102313.13;4954517;28;20551;-60
2021/11/20 05:10:19;;;;;;;56.70;29.15;;;;;;;11.46;74.97;102314.97;4954854;28;20058;-59
2021/11/20 05:12:45;;;;;;;55.08;28.23;;;;;;;11.49;74.88;102309.59;4954958;28;20051;-60
2021/11/20 05:15:13;;;;;;;53.53;27.20;;;;;;;11.46;74.89;102312.34;4954612;28;20055;-59
2021/11/20 05:17:40;;;;;;;52.92;27.27;;;;;;;11.37;74.92;102305.63;4953514;28;20106;-59
2021/11/20 05:20:12;;;;;;;55.08;28.58;;;;;;;11.41;74.71;102309.88;4954592;28;20063;-60
2021/11/20 05:22:39;;;;;;;57.80;30.02;;;;;;;11.40;74.93;102316.03;4954333;28;20051;-59
2021/11/20 05:25:07;;;;;;;52.85;27.55;;;;;;;11.44;74.72;102317.66;4954649;28;20094;-59
2021/11/20 05:27:34;;;;;;;51.50;27.48;;;;;;;11.47;74.63;102314.06;4953949;28;20055;-59
2021/11/20 05:30:06;;;;;;;57.35;28.52;;;;;;;11.50;74.42;102303.44;4954649;28;20130;-59
2021/11/20 05:32:33;;;;;;;57.53;28.98;;;;;;;11.45;74.63;102306.22;4954139;28;20058;-59
2021/11/20 05:35:00;;;;;;;58.10;29.98;;;;;;;11.46;74.55;102307.94;4953215;28;20050;-60
2021/11/20 05:37:27;;;;;;;56.78;29.35;;;;;;;11.41;74.60;102309.88;4954405;28;20047;-59
2021/11/20 05:39:54;;;;;;;56.95;28.60;;;;;;;11.42;74.72;102309.81;4954058;28;20054;-60
2021/11/20 05:42:20;;;;;;;51.90;27.83;;;;;;;11.46;74.58;102312.34;4954158;28;20059;-59
2021/11/20 05:44:47;;;;;;;55.65;27.45;;;;;;;11.48;74.41;102311.38;4954471;28;20043;-59
2021/11/20 05:47:14;;;;;;;58.95;28.40;;;;;;;11.46;74.42;102307.94;4954057;28;20125;-59
2021/11/20 05:49:41;;;;;;;59.20;28.92;;;;;;;11.50;74.35;102303.44;4953549;28;20435;-59
2021/11/20 05:52:10;;;;;;;53.28;28.38;;;;;;;11.49;74.44;102301.72;4954128;28;20070;-59
2021/11/20 05:54:37;;;;;;;55.22;28.00;;;;;;;11.44;74.50;102301.91;4954265;28;20051;-59
2021/11/20 05:57:04;;;;;;;55.20;28.85;;;;;;;11.47;74.39;102301.78;4954228;28;20047;-59
2021/11/20 05:59:31;;;;;;;56.20;28.95;;;;;;;11.46;74.62;102305.31;4954176;28;20043;-60
2021/11/20 06:01:57;;;;;;;55.70;28.92;;;;;;;11.50;74.31;102304.28;4954055;28;20055;-60
2021/11/20 06:04:29;;;;;;;58.72;28.83;;;;;;;11.52;74.33;102309.50;4953985;28;20480;-62
2021/11/20 06:06:56;;;;;;;56.67;27.92;;;;;;;11.54;74.42;102302.41;4954082;28;20047;-59
2021/11/20 06:09:23;;;;;;;54.90;27.95;;;;;;;11.52;74.15;102305.09;4952716;28;20047;-59
2021/11/20 06:11:49;;;;;;;57.15;27.45;;;;;;;11.48;74.60;102300.00;4954306;28;20048;-68
2021/11/20 06:14:17;;;;;;;59.78;29.70;;;;;;;11.39;74.72;102293.31;4953884;28;20047;-68
2021/11/20 06:16:44;;;;;;;55.55;27.70;;;;;;;11.36;74.86;102286.38;4954010;28;20051;-62
2021/11/20 06:19:12;;;;;;;52.58;28.15;;;;;;;11.40;74.62;102289.75;4954004;28;20502;-59
2021/11/20 06:21:39;;;;;;;61.22;29.40;;;;;;;11.43;74.37;102301.00;4953844;28;20472;-59
2021/11/20 06:24:06;;;;;;;59.50;29.10;;;;;;;11.42;74.40;102291.41;4953613;28;20047;-59
2021/11/20 06:26:34;;;;;;;56.45;28.33;;;;;;;11.43;74.24;102295.75;4952876;28;20094;-60
2021/11/20 06:29:03;;;;;;;53.75;26.67;;;;;;;11.33;74.51;102289.13;4941066;28;20062;-59
2021/11/20 06:31:30;;;;;;;51.90;26.20;;;;;;;11.42;74.23;102285.31;4953358;28;20048;-59
2021/11/20 06:34:00;;;;;;;53.17;27.10;;;;;;;11.44;74.48;102291.38;4953870;28;20070;-65
2021/11/20 06:36:29;;;;;;;52.78;26.77;;;;;;;11.45;74.48;102298.31;4953731;28;20050;-59
2021/11/20 06:38:57;;;;;;;59.03;29.02;;;;;;;11.35;74.35;102294.31;4953443;28;20057;-59
2021/11/20 06:41:24;;;;;;;64.30;31.48;;;;;;;11.38;74.49;102294.22;4952538;28;20067;-59
2021/11/20 06:43:51;;;;;;;80.05;33.25;;;;;;;11.40;74.54;102297.63;4953670;28;20448;-59
2021/11/20 06:46:18;;;;;;;64.32;30.95;;;;;;;11.36;74.44;102291.63;4943891;28;20055;-59
2021/11/20 06:48:46;;;;;;;64.30;32.13;;;;;;;11.38;74.47;102292.44;4954796;28;20055;-59
2021/11/20 06:51:13;;;;;;;75.20;34.50;;;;;;;11.42;74.41;102293.19;4957188;28;20083;-59
2021/11/20 06:53:41;;;;;;;74.10;35.17;;;;;;;11.39;74.39;102295.94;4957329;28;20043;-59
2021/11/20 06:56:15;;;;;;;68.88;32.72;;;;;;;11.39;74.21;102299.41;4957178;28;20054;-59
2021/11/20 07:01:20;;;;;;;71.57;34.05;;;;;;;11.46;74.17;102296.56;4956880;28;20075;-60
2021/11/20 07:04:00;;;;;;;73.20;33.85;;;;;;;11.44;73.91;102294.84;4956951;28;20079;-60
2021/11/20 07:06:47;;;;;;;72.32;34.67;;;;;;;11.49;74.06;102291.19;4956312;28;20043;-74
2021/11/20 07:09:16;;;;;;;58.80;30.95;;;;;;;11.41;74.05;102299.34;4949512;28;20039;-68
2021/11/20 07:11:43;;;;;;;51.58;27.05;;;;;;;11.46;73.93;102292.16;4939121;28;20047;-61
2021/11/20 07:14:10;;;;;;;54.05;28.77;;;;;;;11.49;73.75;102299.97;4953889;28;20055;-60
2021/11/20 07:16:37;;;;;;;61.60;31.83;;;;;;;11.47;73.62;102299.16;4955947;28;20055;-71
2021/11/20 07:19:04;;;;;;;55.83;28.75;;;;;;;11.41;73.61;102302.88;4956670;28;20093;-60
2021/11/20 07:21:31;;;;;;;49.45;25.42;;;;;;;11.41;74.02;102307.25;4956539;28;20090;-59
2021/11/20 07:24:01;;;;;;;51.85;25.83;;;;;;;11.48;73.50;102303.50;4956493;28;20053;-60
2021/11/20 07:26:29;;;;;;;49.97;27.15;;;;;;;11.54;73.26;102310.28;4955935;28;20073;-61
2021/11/20 07:28:56;;;;;;;51.47;26.65;;;;;;;11.51;73.12;102311.25;4956197;28;20058;-61
2021/11/20 07:31:41;;;;;;;52.17;26.50;;;;;;;11.50;73.36;102316.56;4947963;28;20055;-60
2021/11/20 07:34:08;;;;;;;48.67;25.48;;;;;;;11.46;73.33;102317.59;4935405;28;20110;-62
2021/11/20 07:36:36;;;;;;;53.88;26.45;;;;;;;11.40;73.31;102310.78;4937928;28;20552;-60
2021/11/20 07:39:10;;;;;;;50.92;26.17;;;;;;;11.39;73.27;102309.09;4933565;28;20044;-60
2021/11/20 07:41:37;;;;;;;49.28;25.15;;;;;;;11.44;73.10;102312.41;4933737;28;20050;-60
2021/11/20 07:44:05;;;;;;;51.50;26.17;;;;;;;11.46;73.26;102318.44;4937557;28;20043;-71
2021/11/20 07:46:32;;;;;;;52.10;26.77;;;;;;;11.46;73.05;102318.44;4936716;28;20066;-61
2021/11/20 07:48:59;;;;;;;50.20;26.80;;;;;;;11.47;73.19;102306.19;4935740;28;20055;-61
2021/11/20 07:51:27;;;;;;;48.67;26.30;;;;;;;11.49;73.08;102307.84;4934075;28;20082;-60
2021/11/20 07:53:54;;;;;;;54.28;26.85;;;;;;;11.57;72.81;102310.19;4950937;28;20086;-60
2021/11/20 07:56:21;;;;;;;56.72;26.38;;;;;;;11.54;72.81;102310.28;4953129;28;20091;-70
2021/11/20 07:58:49;;;;;;;48.65;25.25;;;;;;;11.49;72.82;102314.84;4952514;28;20063;-60
2021/11/20 08:01:16;;;;;;;50.92;26.80;;;;;;;11.46;73.01;102307.94;4952997;28;20043;-72
2021/11/20 08:03:43;;;;;;;52.25;26.95;;;;;;;11.47;72.96;102314.06;4952231;28;20109;-61
2021/11/20 08:06:10;;;;;;;50.92;26.05;;;;;;;11.51;72.80;102319.16;4951784;28;20043;-61
2021/11/20 08:08:38;;;;;;;50.30;26.35;;;;;;;11.57;72.60;102316.31;4952634;28;20059;-62
2021/11/20 08:11:05;;;;;;;49.28;26.40;;;;;;;11.58;72.57;102301.41;4952510;28;20051;-61
2021/11/20 08:13:35;;;;;;;50.83;26.15;;;;;;;11.62;72.48;102304.75;4952238;28;20146;-62
2021/11/20 08:16:05;;;;;;;52.58;27.23;;;;;;;11.64;72.56;102306.41;4952121;28;20130;-60
2021/11/20 08:18:31;;;;;;;49.33;26.00;;;;;;;11.58;72.38;102307.50;4952392;28;20677;-60
2021/11/20 08:20:59;;;;;;;54.55;26.02;;;;;;;11.62;72.35;102308.25;4936738;28;20106;-60
2021/11/20 08:23:26;;;;;;;50.97;26.10;;;;;;;11.52;72.63;102307.72;4933926;28;20484;-60
2021/11/20 08:25:53;;;;;;;52.20;25.70;;;;;;;11.59;72.26;102306.59;4936334;28;20432;-60
2021/11/20 08:28:21;;;;;;;40.42;22.48;;;;;;;11.62;72.80;102310.00;4935532;28;20047;-59
2021/11/20 08:30:48;;;;;;;53.08;27.42;;;;;;;11.70;72.21;102315.88;4944005;28;20060;-60
2021/11/20 08:33:16;;;;;;;50.72;26.85;;;;;;;11.63;72.71;102315.25;4938586;28;20492;-61
2021/11/20 08:35:43;;;;;;;49.95;27.58;;;;;;;11.70;72.33;102310.63;4934421;28;20428;-62
2021/11/20 08:38:12;;;;;;;55.00;27.98;;;;;;;11.69;72.30;102311.53;4934596;28;20405;-60
2021/11/20 08:40:41;;;;;;;51.00;24.38;;;;;;;11.71;72.23;102310.56;4935754;28;20551;-64
2021/11/20 08:43:08;;;;;;;53.15;27.30;;;;;;;11.70;72.28;102310.63;4936430;28;20044;-60
2021/11/20 08:45:39;;;;;;;59.15;28.70;;;;;;;11.65;72.19;102308.13;4933151;28;20405;-61
2021/11/20 08:48:06;;;;;;;50.42;26.40;;;;;;;11.71;71.84;102305.28;4931766;28;20505;-60
2021/11/20 08:50:40;;;;;;;49.60;26.77;;;;;;;11.68;72.09;102310.69;4939468;28;20070;-61
2021/11/20 08:53:08;;;;;;;52.55;26.63;;;;;;;11.74;71.85;102310.47;4933899;28;20078;-62
2021/11/20 08:55:36;;;;;;;48.03;25.33;;;;;;;11.75;72.15;102306.88;4938270;28;20050;-60
2021/11/20 08:58:04;;;;;;;48.22;25.00;;;;;;;11.75;71.62;102316.56;4946841;28;20046;-76
2021/11/20 09:00:40;;;;;;;47.60;25.80;;;;;;;11.86;71.67;102311.78;4949750;28;20664;-60
2021/11/20 09:03:22;;;;;;;49.70;25.52;;;;;;;11.96;70.92;102307.06;4934212;28;20103;-60
2021/11/20 09:06:07;;;;;;;47.55;25.17;;;;;;;11.98;70.93;102307.00;4949876;28;20098;-59
2021/11/20 09:08:56;;;;;;;46.27;23.87;;;;;;;11.93;70.82;102305.38;4950317;28;20091;-61
2021/11/20 09:11:29;;;;;;;46.28;25.17;;;;;;;11.92;70.71;102311.53;4934886;28;20279;-61
2021/11/20 09:14:06;;;;;;;45.38;24.95;;;;;;;11.90;70.87;102308.09;4942281;28;20055;-69
2021/11/20 09:16:34;;;;;;;50.42;27.20;;;;;;;11.91;70.89;102315.09;4947046;28;20051;-60
2021/11/20 09:19:02;;;;;;;48.63;25.27;;;;;;;11.93;70.78;102309.75;4939774;28;20043;-60
2021/11/20 09:21:35;;;;;;;45.65;24.60;;;;;;;11.96;70.73;102301.81;4938513;28;20575;-60
2021/11/20 09:24:03;;;;;;;47.05;25.98;;;;;;;11.91;70.72;102295.81;4950922;28;20043;-60
2021/11/20 09:26:33;;;;;;;51.83;26.20;;;;;;;11.99;70.89;102298.19;4945757;28;20052;-61
2021/11/20 09:29:01;;;;;;;52.30;28.80;;;;;;;11.96;70.68;102306.19;4950141;28;20115;-60
2021/11/20 09:31:31;;;;;;;49.88;26.42;;;;;;;11.95;71.03;102289.53;4935024;28;20054;-60
2021/11/20 09:33:57;;;;;;;47.15;25.63;;;;;;;11.97;70.83;102292.13;4932857;28;20228;-60
2021/11/20 09:36:27;;;;;;;47.58;26.48;;;;;;;11.98;70.82;102285.94;4932251;28;20044;-72
2021/11/20 09:38:54;;;;;;;49.67;26.45;;;;;;;11.99;70.73;102288.53;4931493;28;20066;-60
2021/11/20 09:41:43;;;;;;;50.65;25.88;;;;;;;12.04;70.67;102283.94;4932445;28;20086;-61
2021/11/20 09:44:10;;;;;;;47.30;25.75;;;;;;;12.09;70.60;102273.25;4932455;28;20055;-59
2021/11/20 09:46:45;;;;;;;48.38;26.08;;;;;;;12.18;70.29;102270.25;4944154;28;20039;-60
2021/11/20 09:49:29;;;;;;;48.03;25.80;;;;;;;12.31;69.72;102275.88;4933168;28;20428;-59
2021/11/20 09:51:57;;;;;;;44.92;24.55;;;;;;;12.40;69.80;102266.78;4934519;28;20416;-59
2021/11/20 09:54:28;;;;;;;44.28;24.92;;;;;;;12.35;69.49;102264.31;4950542;28;20131;-60
2021/11/20 09:57:21;;;;;;;49.13;28.10;;;;;;;12.37;69.83;102259.00;4943883;28;20065;-60
2021/11/20 09:59:53;;;;;;;51.95;26.42;;;;;;;12.30;69.75;102263.63;4941986;28;20047;-59
2021/11/20 10:02:20;;;;;;;45.60;24.50;;;;;;;12.25;69.97;102263.84;4936480;28;20043;-60
2021/11/20 10:04:52;;;;;;;48.80;25.42;;;;;;;12.33;69.73;102260.03;4938492;28;20055;-60
2021/11/20 10:07:36;;;;;;;49.25;25.90;;;;;;;12.34;69.47;102252.09;4934498;28;20060;-61
2021/11/20 10:10:24;;;;;;;51.42;25.67;;;;;;;12.43;69.31;102248.25;4937380;28;20409;-62
2021/11/20 10:13:10;;;;;;;48.10;25.08;;;;;;;12.39;69.56;102239.59;4944471;28;20523;-61
2021/11/20 10:16:24;;;;;;;50.05;25.35;;;;;;;12.39;69.35;102241.38;4950326;28;20481;-61
2021/11/20 10:18:57;;;;;;;44.45;23.88;;;;;;;12.51;69.18;102243.50;4949241;28;20047;-60
2021/11/20 10:21:32;;;;;;;47.58;24.58;;;;;;;12.54;68.98;102239.88;4952210;28;20488;-60
2021/11/20 10:24:08;;;;;;;46.97;25.05;;;;;;;12.53;68.87;102232.91;4954744;28;20051;-60
2021/11/20 10:27:07;;;;;;;46.25;25.80;;;;;;;12.53;68.98;102217.97;4954494;28;20050;-60
2021/11/20 10:30:11;;;;;;;45.38;25.40;;;;;;;12.57;69.09;102221.34;4954080;28;20074;-61
2021/11/20 10:32:37;;;;;;;45.53;24.27;;;;;;;12.70;68.56;102217.25;4953922;28;20054;-59
2021/11/20 10:35:16;;;;;;;43.63;23.48;;;;;;;12.85;68.17;102214.91;4954196;28;20054;-59
2021/11/20 10:37:55;;;;;;;46.47;24.00;;;;;;;13.04;67.34;102213.19;4949128;28;20480;-73
2021/11/20 10:40:38;;;;;;;43.17;24.30;;;;;;;13.30;66.68;102194.53;4954065;28;20086;-71
2021/11/20 10:43:13;;;;;;;40.38;22.65;;;;;;;13.79;65.34;102188.78;4954364;28;20151;-63
2021/11/20 10:46:00;;;;;;;40.25;22.88;;;;;;;14.05;64.36;102179.63;4954513;28;20070;-59
2021/11/20 10:48:34;;;;;;;43.15;25.02;;;;;;;14.53;62.95;102174.66;4953717;28;20055;-60
2021/11/20 10:51:39;;;;;;;45.10;24.38;;;;;;;14.15;64.19;102169.50;4953277;28;20525;-62
2021/11/20 10:54:11;;;;;;;47.50;24.98;;;;;;;13.86;65.14;102166.47;4944866;28;20484;-68
2021/11/20 10:56:56;;;;;;;44.75;23.80;;;;;;;13.62;65.94;102163.22;4954113;28;20051;-58
2021/11/20 10:59:41;;;;;;;40.72;24.70;;;;;;;13.47;65.90;102156.88;4940978;28;20055;-64
2021/11/20 11:02:25;;;;;;;48.42;25.02;;;;;;;13.46;66.14;102155.16;4944821;28;20051;-64
2021/11/20 11:05:09;;;;;;;40.08;23.52;;;;;;;13.96;64.66;102145.78;4935842;28;20501;-59
2021/11/20 11:07:47;;;;;;;43.83;24.30;;;;;;;14.41;63.11;102146.22;4938068;28;20058;-58
2021/11/20 11:10:20;;;;;;;41.47;23.73;;;;;;;14.61;62.66;102147.84;4934351;28;20055;-59
2021/11/20 11:13:04;;;;;;;43.08;25.02;;;;;;;14.26;63.48;102145.19;4934926;28;20048;-58
2021/11/20 11:16:04;;;;;;;43.88;24.65;;;;;;;14.19;63.47;102142.00;4933417;28;20047;-59
2021/11/20 11:18:38;;;;;;;46.45;25.20;;;;;;;14.78;61.73;102136.44;4934812;28;20142;-59
2021/11/20 11:21:16;;;;;;;41.25;22.80;;;;;;;15.02;61.20;102129.03;4935160;28;20496;-63
2021/11/20 11:24:03;;;;;;;42.70;22.92;;;;;;;15.32;60.42;102115.91;4935222;28;20039;-59
2021/11/20 11:26:35;;;;;;;43.13;23.42;;;;;;;14.94;61.10;102113.53;4934482;28;20056;-62
2021/11/20 11:29:24;;;;;;;42.42;24.42;;;;;;;14.66;61.83;102122.09;4938585;28;20051;-58
2021/11/20 11:31:52;;;;;;;47.70;30.10;;;;;;;14.50;62.52;102114.03;4951877;28;20051;-62